Time;durP1;ratioP1;P1;durP2;ratioP2;P2;SDS_P1;SDS_P2;PMS_P1;PMS_P2;Temp;Humidity;BMP_temperature;BMP_pressure;BME280_temperature;BME280_humidity;BME280_pressure;Samples;Min_cycle;Max_cycle;Signal;HPM_P1;HPM_P2
2021/05/10 00:00:06;;;;;;;2.70;2.50;;;20.20;78.40;;;;;;5068620;28;20921;-74
2021/05/10 00:02:32;;;;;;;2.77;1.77;;;20.10;78.40;;;;;;5069582;28;20646;-75
2021/05/10 00:04:57;;;;;;;2.20;2.10;;;20.00;78.90;;;;;;5077575;28;20453;-73
2021/05/10 00:07:23;;;;;;;2.83;2.50;;;19.90;79.40;;;;;;5075556;28;20210;-75
2021/05/10 00:09:48;;;;;;;2.80;2.60;;;19.80;80.00;;;;;;5063834;28;20639;-75
2021/05/10 00:12:14;;;;;;;2.87;2.67;;;19.80;82.10;;;;;;5064743;28;20192;-74
2021/05/10 00:14:43;;;;;;;2.60;2.40;;;19.80;83.00;;;;;;5065218;28;20254;-76
2021/05/10 00:17:09;;;;;;;2.80;2.60;;;19.60;82.40;;;;;;5067132;28;20239;-75
2021/05/10 00:19:34;;;;;;;3.37;2.60;;;19.60;83.50;;;;;;5076890;28;20420;-75
2021/05/10 00:22:00;;;;;;;3.43;2.70;;;19.50;83.80;;;;;;5067857;28;20456;-76
2021/05/10 00:24:26;;;;;;;2.23;2.03;;;19.40;83.40;;;;;;5080942;28;20596;-75
2021/05/10 00:26:52;;;;;;;2.57;2.37;;;19.40;84.40;;;;;;5072638;28;20255;-74
2021/05/10 00:29:18;;;;;;;3.87;2.40;;;19.30;84.00;;;;;;5074573;28;20209;-74
2021/05/10 00:31:45;;;;;;;2.50;2.30;;;19.30;84.50;;;;;;5072076;28;20185;-74
2021/05/10 00:34:11;;;;;;;2.27;2.07;;;19.30;83.40;;;;;;5070987;28;20423;-75
2021/05/10 00:36:37;;;;;;;3.30;2.33;;;19.30;83.50;;;;;;5059302;28;20478;-77
2021/05/10 00:39:04;;;;;;;2.67;2.47;;;19.20;83.30;;;;;;5075032;28;20880;-74
2021/05/10 00:41:30;;;;;;;2.87;2.27;;;19.30;82.90;;;;;;5068436;28;20241;-75
2021/05/10 00:43:55;;;;;;;2.63;2.33;;;19.30;83.10;;;;;;5078302;28;20432;-73
2021/05/10 00:46:21;;;;;;;2.93;2.20;;;19.40;82.10;;;;;;5071663;28;20237;-75
2021/05/10 00:48:46;;;;;;;2.43;2.33;;;19.50;82.30;;;;;;5072563;28;20206;-76
2021/05/10 00:51:12;;;;;;;2.53;2.17;;;19.60;81.70;;;;;;5079781;28;20189;-76
2021/05/10 00:53:37;;;;;;;2.83;2.53;;;19.60;81.60;;;;;;5062026;28;20240;-76
2021/05/10 00:56:04;;;;;;;2.70;2.60;;;19.60;81.60;;;;;;5066474;28;20179;-74
2021/05/10 00:58:29;;;;;;;4.23;2.30;;;19.70;80.70;;;;;;5073252;28;20603;-75
2021/05/10 01:00:55;;;;;;;2.53;2.33;;;19.60;80.90;;;;;;5072683;28;20424;-74
2021/05/10 01:03:21;;;;;;;4.00;2.17;;;19.70;80.90;;;;;;5078019;28;20322;-76
2021/05/10 01:05:46;;;;;;;2.53;2.37;;;19.70;80.40;;;;;;5070387;28;20287;-74
2021/05/10 01:08:12;;;;;;;2.57;2.20;;;19.60;79.90;;;;;;5069846;28;20633;-74
2021/05/10 01:10:38;;;;;;;2.30;2.10;;;19.60;81.30;;;;;;5074280;28;20236;-75
2021/05/10 01:13:04;;;;;;;2.40;2.07;;;19.60;82.40;;;;;;5067433;28;20473;-74
2021/05/10 01:15:32;;;;;;;3.03;2.33;;;19.60;81.90;;;;;;5078230;28;20199;-77
2021/05/10 01:17:58;;;;;;;2.20;2.10;;;19.60;80.10;;;;;;5062974;28;20229;-75
2021/05/10 01:20:24;;;;;;;3.00;2.80;;;19.60;80.30;;;;;;5079348;28;20780;-75
2021/05/10 01:22:55;;;;;;;2.80;2.60;;;19.60;80.70;;;;;;5064726;28;20256;-75
2021/05/10 01:25:31;;;;;;;2.60;2.40;;;19.50;82.30;;;;;;5077367;28;20427;-75
2021/05/10 01:27:59;;;;;;;2.80;2.60;;;19.50;82.60;;;;;;5076772;28;20475;-75
2021/05/10 01:30:33;;;;;;;3.37;2.73;;;19.60;82.70;;;;;;5068531;28;20678;-76
2021/05/10 01:33:00;;;;;;;2.50;2.30;;;19.50;81.50;;;;;;5075329;28;20806;-73
2021/05/10 01:35:32;;;;;;;2.90;2.70;;;19.50;82.70;;;;;;5058361;28;20425;-74
2021/05/10 01:37:58;;;;;;;3.20;2.43;;;19.50;83.80;;;;;;5074932;28;20479;-76
2021/05/10 01:40:24;;;;;;;2.00;1.90;;;19.50;86.10;;;;;;5072875;28;20431;-75
2021/05/10 01:42:50;;;;;;;2.73;2.53;;;19.50;87.00;;;;;;5072325;28;20932;-77
2021/05/10 01:45:16;;;;;;;2.83;2.50;;;19.40;87.20;;;;;;5066784;28;20520;-74
2021/05/10 01:47:42;;;;;;;2.63;2.17;;;19.40;88.40;;;;;;5069671;28;20905;-76
2021/05/10 01:50:20;;;;;;;3.17;2.80;;;19.30;89.10;;;;;;5072171;28;20189;-75
2021/05/10 01:52:46;;;;;;;2.63;2.43;;;19.30;89.50;;;;;;5077956;28;20185;-77
2021/05/10 01:55:12;;;;;;;3.13;2.93;;;19.30;90.60;;;;;;5068187;28;20478;-75
2021/05/10 01:57:39;;;;;;;2.90;2.53;;;19.20;90.40;;;;;;5061524;28;21021;-75
2021/05/10 02:00:17;;;;;;;2.83;2.60;;;19.20;90.50;;;;;;5078544;28;20469;-75
2021/05/10 02:02:43;;;;;;;3.33;2.73;;;19.10;90.90;;;;;;5072051;28;20944;-74
2021/05/10 02:05:21;;;;;;;3.43;3.13;;;19.00;91.70;;;;;;5064915;28;20927;-73
2021/05/10 02:07:49;;;;;;;3.40;2.60;;;19.00;91.30;;;;;;5078471;28;20975;-74
2021/05/10 02:10:19;;;;;;;3.47;2.40;;;19.00;90.50;;;;;;5081348;28;20419;-75
2021/05/10 02:12:58;;;;;;;2.30;2.10;;;19.00;90.60;;;;;;5067144;28;20460;-74
2021/05/10 02:15:26;;;;;;;3.57;2.80;;;18.90;89.20;;;;;;5068296;28;20920;-76
2021/05/10 02:17:51;;;;;;;2.50;2.30;;;18.90;89.90;;;;;;5075551;28;20496;-76
2021/05/10 02:20:19;;;;;;;2.63;2.43;;;18.80;88.70;;;;;;5067191;28;20411;-75
2021/05/10 02:23:01;;;;;;;2.40;2.20;;;18.70;89.70;;;;;;5073026;28;20267;-74
2021/05/10 02:25:35;;;;;;;2.70;2.43;;;18.70;88.70;;;;;;5078518;28;20451;-74
2021/05/10 02:28:01;;;;;;;2.37;2.20;;;18.60;88.50;;;;;;5067755;28;20448;-74
2021/05/10 02:30:28;;;;;;;2.63;1.87;;;18.60;88.20;;;;;;5079145;28;21283;-75
2021/05/10 02:32:55;;;;;;;3.03;2.80;;;18.60;88.50;;;;;;5064130;28;20867;-75
2021/05/10 02:35:22;;;;;;;4.80;2.60;;;18.50;88.20;;;;;;5058071;28;20482;-75
2021/05/10 02:37:49;;;;;;;2.73;2.53;;;18.60;88.50;;;;;;5063339;28;20466;-76
2021/05/10 02:40:15;;;;;;;2.80;2.43;;;18.60;87.90;;;;;;5065060;28;20470;-74
2021/05/10 02:42:41;;;;;;;3.17;2.50;;;18.50;87.60;;;;;;5064382;28;20432;-74
2021/05/10 02:45:08;;;;;;;3.03;2.73;;;18.60;87.90;;;;;;5071269;28;20439;-73
2021/05/10 02:47:34;;;;;;;2.97;2.17;;;18.50;88.80;;;;;;5060622;28;20815;-75
2021/05/10 02:50:01;;;;;;;3.40;2.27;;;18.60;89.00;;;;;;5087602;28;20424;-74
2021/05/10 02:52:27;;;;;;;2.23;2.10;;;18.70;88.90;;;;;;5075212;28;20408;-74
2021/05/10 02:54:52;;;;;;;2.57;2.37;;;18.70;88.00;;;;;;5075757;28;20422;-74
2021/05/10 02:57:18;;;;;;;4.03;2.50;;;18.70;88.30;;;;;;5066679;28;20790;-75
2021/05/10 02:59:44;;;;;;;3.17;2.63;;;18.70;88.30;;;;;;5075158;28;20198;-75
2021/05/10 03:02:10;;;;;;;2.27;2.07;;;18.70;88.30;;;;;;5078695;28;20193;-75
2021/05/10 03:04:36;;;;;;;3.10;2.80;;;18.70;87.20;;;;;;5065824;28;20189;-74
2021/05/10 03:07:01;;;;;;;5.20;2.73;;;18.80;88.30;;;;;;5063286;28;20532;-74
2021/05/10 03:09:27;;;;;;;2.47;2.27;;;18.80;88.90;;;;;;5068894;28;20194;-75
2021/05/10 03:11:53;;;;;;;2.70;2.40;;;18.80;88.30;;;;;;5072967;28;20193;-75
2021/05/10 03:14:19;;;;;;;2.80;2.60;;;18.80;89.50;;;;;;5076403;28;20181;-74
2021/05/10 03:16:44;;;;;;;2.73;2.50;;;18.90;88.70;;;;;;5068807;28;20182;-73
2021/05/10 03:19:10;;;;;;;2.30;2.10;;;18.90;88.70;;;;;;5067636;28;20454;-75
2021/05/10 03:21:37;;;;;;;7.00;2.27;;;18.90;88.20;;;;;;5069094;28;20186;-73
2021/05/10 03:24:07;;;;;;;2.57;2.37;;;19.10;88.40;;;;;;5073172;28;20543;-76
2021/05/10 03:26:34;;;;;;;3.43;2.20;;;19.20;87.70;;;;;;5074418;28;20458;-76
2021/05/10 03:29:01;;;;;;;2.67;2.47;;;19.30;86.30;;;;;;5068120;28;20481;-75
2021/05/10 03:31:26;;;;;;;2.67;2.47;;;19.40;86.20;;;;;;5079886;28;20435;-76
2021/05/10 03:33:52;;;;;;;3.10;2.00;;;19.50;85.60;;;;;;5074569;28;20427;-76
2021/05/10 03:36:18;;;;;;;2.30;2.20;;;19.50;85.30;;;;;;5069123;28;20185;-75
2021/05/10 03:38:43;;;;;;;2.83;2.63;;;19.60;84.60;;;;;;5078387;28;20209;-76
2021/05/10 03:41:09;;;;;;;2.50;2.30;;;19.60;84.70;;;;;;5082112;28;20922;-76
2021/05/10 03:43:34;;;;;;;3.43;2.40;;;19.70;84.60;;;;;;5073087;28;20194;-76
2021/05/10 03:46:00;;;;;;;2.67;2.47;;;19.70;84.10;;;;;;5071833;28;20228;-76
2021/05/10 03:48:25;;;;;;;2.90;2.27;;;19.80;84.70;;;;;;5075966;28;21799;-76
2021/05/10 03:50:51;;;;;;;3.60;2.30;;;19.80;84.00;;;;;;5078706;28;20188;-76
2021/05/10 03:53:17;;;;;;;2.57;2.37;;;19.90;84.10;;;;;;5081278;28;20250;-75
2021/05/10 03:55:42;;;;;;;2.43;2.20;;;19.80;83.90;;;;;;5072700;28;20595;-76
2021/05/10 03:58:08;;;;;;;3.90;2.33;;;19.90;84.00;;;;;;5074587;28;20197;-76
2021/05/10 04:00:33;;;;;;;2.50;2.17;;;19.90;83.90;;;;;;5076481;28;20559;-77
2021/05/10 04:03:00;;;;;;;3.03;2.83;;;19.90;83.80;;;;;;5076622;28;20227;-75
2021/05/10 04:07:56;;;;;;;2.30;2.03;;;19.90;85.60;;;;;;5065520;28;20792;-76
2021/05/10 04:15:31;;;;;;;2.40;2.13;;;19.80;86.00;;;;;;5076201;28;20618;-75
2021/05/10 04:17:57;;;;;;;2.83;2.63;;;19.80;86.00;;;;;;5065643;28;20533;-75
2021/05/10 04:20:23;;;;;;;2.80;2.07;;;19.80;87.00;;;;;;5080569;28;20213;-76
2021/05/10 04:22:48;;;;;;;2.63;2.13;;;19.80;87.60;;;;;;5065516;28;20189;-75
2021/05/10 04:25:14;;;;;;;3.27;2.80;;;19.90;87.30;;;;;;5072356;28;20263;-76
2021/05/10 04:27:40;;;;;;;2.40;2.20;;;19.80;87.70;;;;;;5062231;28;20217;-75
2021/05/10 04:30:06;;;;;;;2.23;2.13;;;19.90;88.00;;;;;;5069256;28;20193;-76
2021/05/10 04:32:32;;;;;;;2.73;2.50;;;19.90;87.70;;;;;;5067314;28;20427;-76
2021/05/10 04:34:57;;;;;;;3.50;3.20;;;19.90;88.40;;;;;;5071002;28;20419;-74
2021/05/10 04:37:23;;;;;;;4.47;4.07;;;19.20;92.10;;;;;;5075033;28;20255;-76
2021/05/10 04:39:49;;;;;;;4.30;4.00;;;18.50;94.70;;;;;;5074059;28;20193;-78
2021/05/10 04:42:14;;;;;;;4.83;3.70;;;18.10;97.20;;;;;;5074638;28;20220;-77
2021/05/10 04:44:40;;;;;;;4.50;4.10;;;17.80;99.20;;;;;;5066221;28;20187;-76
2021/05/10 04:47:05;;;;;;;4.10;3.80;;;17.70;99.90;;;;;;5079479;28;20201;-77
2021/05/10 04:49:31;;;;;;;9.30;4.43;;;17.60;99.90;;;;;;5074295;28;20186;-77
2021/05/10 04:51:56;;;;;;;5.73;3.90;;;17.60;99.90;;;;;;5078055;28;20714;-75
2021/05/10 04:54:22;;;;;;;4.30;4.00;;;17.60;99.90;;;;;;5071055;28;20181;-78
2021/05/10 04:56:47;;;;;;;4.40;3.50;;;17.50;99.90;;;;;;5080197;28;20193;-77
2021/05/10 04:59:13;;;;;;;3.90;3.50;;;17.60;99.90;;;;;;5072766;28;20222;-76
2021/05/10 05:01:39;;;;;;;4.07;3.70;;;17.70;99.90;;;;;;5074433;28;20184;-76
2021/05/10 05:04:04;;;;;;;6.07;4.27;;;17.80;99.90;;;;;;5066956;28;20214;-76
2021/05/10 05:06:30;;;;;;;5.57;3.90;;;17.80;99.90;;;;;;5065519;28;20198;-75
2021/05/10 05:08:55;;;;;;;4.97;3.73;;;17.80;99.90;;;;;;5060729;28;20288;-75
2021/05/10 05:11:21;;;;;;;6.00;3.80;;;17.80;99.90;;;;;;5072402;28;20188;-75
2021/05/10 05:13:46;;;;;;;4.40;3.87;;;17.90;99.90;;;;;;5076675;28;20177;-76
2021/05/10 05:16:12;;;;;;;5.40;3.87;;;18.00;99.90;;;;;;5071249;28;20261;-75
2021/05/10 05:18:38;;;;;;;8.40;4.13;;;18.00;99.90;;;;;;5064519;28;20654;-75
2021/05/10 05:21:04;;;;;;;5.90;4.20;;;18.00;99.90;;;;;;5067822;28;20752;-75
2021/05/10 05:23:30;;;;;;;4.27;3.87;;;18.00;99.90;;;;;;5074061;28;20223;-77
2021/05/10 05:26:00;;;;;;;4.00;3.70;;;18.10;99.90;;;;;;5064246;28;20496;-76
2021/05/10 05:28:27;;;;;;;3.50;2.90;;;18.10;99.90;;;;;;5051430;28;20214;-77
2021/05/10 05:30:57;;;;;;;3.63;3.30;;;18.20;99.90;;;;;;5071575;28;20930;-75
2021/05/10 05:33:23;;;;;;;5.07;3.30;;;18.20;99.90;;;;;;5067279;28;20979;-76
2021/05/10 05:35:49;;;;;;;4.00;3.60;;;18.10;99.90;;;;;;5066244;28;20551;-77
2021/05/10 05:38:14;;;;;;;4.97;3.67;;;18.10;99.90;;;;;;5054762;28;20579;-76
2021/05/10 05:40:42;;;;;;;4.10;3.60;;;18.10;99.90;;;;;;5067652;28;20224;-77
2021/05/10 05:43:08;;;;;;;4.23;3.50;;;18.20;99.90;;;;;;5078214;28;20239;-76
2021/05/10 05:45:39;;;;;;;5.93;4.00;;;18.20;99.90;;;;;;5063853;28;20420;-76
2021/05/10 05:48:07;;;;;;;8.93;3.90;;;18.40;99.90;;;;;;5060003;28;20507;-75
2021/05/10 05:50:34;;;;;;;4.90;4.00;;;18.40;99.90;;;;;;5067746;28;20440;-75
2021/05/10 05:53:00;;;;;;;3.60;3.30;;;18.50;99.90;;;;;;5073054;28;20415;-76
2021/05/10 05:55:29;;;;;;;3.40;3.10;;;18.60;99.90;;;;;;5074452;28;20415;-76
2021/05/10 05:57:57;;;;;;;4.00;3.60;;;18.70;99.90;;;;;;5070919;28;20432;-77
2021/05/10 06:00:23;;;;;;;3.10;2.90;;;18.70;99.90;;;;;;5075372;28;20407;-76
2021/05/10 06:02:48;;;;;;;4.90;3.47;;;18.90;99.90;;;;;;5062555;28;20828;-75
2021/05/10 06:05:14;;;;;;;4.43;3.43;;;19.00;99.90;;;;;;5063458;28;20185;-75
2021/05/10 06:07:44;;;;;;;4.17;3.37;;;19.00;99.90;;;;;;5066232;28;20285;-76
2021/05/10 06:10:13;;;;;;;4.37;2.90;;;19.10;99.90;;;;;;5074079;28;20790;-77
2021/05/10 06:12:40;;;;;;;3.50;3.20;;;19.20;99.90;;;;;;5077789;28;20442;-76
2021/05/10 06:15:07;;;;;;;3.93;3.20;;;19.40;99.90;;;;;;5071704;28;20421;-77
2021/05/10 06:17:33;;;;;;;4.10;3.30;;;19.50;99.90;;;;;;5066665;28;20941;-77
2021/05/10 06:19:58;;;;;;;3.60;3.27;;;19.50;99.90;;;;;;5076069;28;20427;-77
2021/05/10 06:22:24;;;;;;;4.30;3.20;;;19.60;99.90;;;;;;5058058;28;20959;-77
2021/05/10 06:24:50;;;;;;;3.00;2.77;;;19.70;99.90;;;;;;5075153;28;20272;-77
2021/05/10 06:27:15;;;;;;;6.37;2.70;;;19.80;99.90;;;;;;5076395;28;20213;-76
2021/05/10 06:29:41;;;;;;;5.50;3.10;;;19.80;99.90;;;;;;5066483;28;20182;-77
2021/05/10 06:32:07;;;;;;;3.13;2.80;;;19.90;99.90;;;;;;5076037;28;20212;-78
2021/05/10 06:34:32;;;;;;;3.60;2.77;;;20.00;99.90;;;;;;5077902;28;20498;-76
2021/05/10 06:36:58;;;;;;;3.30;3.00;;;20.00;99.90;;;;;;5075125;28;20670;-75
2021/05/10 06:39:24;;;;;;;3.23;2.93;;;20.10;99.90;;;;;;5069055;28;20217;-76
2021/05/10 06:41:50;;;;;;;4.90;3.73;;;20.10;99.90;;;;;;5075428;28;20708;-76
2021/05/10 06:44:15;;;;;;;5.23;3.20;;;20.20;99.90;;;;;;5071939;28;20435;-76
2021/05/10 06:46:41;;;;;;;5.60;3.30;;;20.30;99.90;;;;;;5069627;28;20241;-75
2021/05/10 06:49:06;;;;;;;4.00;3.10;;;20.40;99.90;;;;;;5072084;28;20319;-77
2021/05/10 06:51:33;;;;;;;4.57;2.60;;;20.40;99.90;;;;;;5075708;28;20189;-76
2021/05/10 06:53:58;;;;;;;6.03;2.90;;;20.40;99.90;;;;;;5070772;28;20186;-78
2021/05/10 06:56:24;;;;;;;5.20;3.33;;;20.30;99.90;;;;;;5057955;28;20566;-77
2021/05/10 06:58:50;;;;;;;3.87;2.43;;;20.30;99.90;;;;;;5076654;28;20304;-75
2021/05/10 07:01:15;;;;;;;3.10;2.90;;;20.20;99.90;;;;;;5069694;28;20191;-77
2021/05/10 07:03:41;;;;;;;2.50;2.30;;;20.20;99.90;;;;;;5077442;28;20441;-76
2021/05/10 07:06:07;;;;;;;4.30;2.80;;;20.20;99.90;;;;;;5076482;28;20208;-77
2021/05/10 07:08:32;;;;;;;2.40;2.20;;;20.20;99.90;;;;;;5069436;28;20217;-76
2021/05/10 07:10:58;;;;;;;3.50;2.53;;;20.20;99.90;;;;;;5073072;28;20189;-76
2021/05/10 07:13:23;;;;;;;2.80;2.30;;;20.10;99.90;;;;;;5079770;28;20193;-76
2021/05/10 07:15:49;;;;;;;3.90;2.90;;;20.10;99.90;;;;;;5070715;28;20243;-76
2021/05/10 07:18:15;;;;;;;3.53;2.97;;;20.20;99.90;;;;;;5070295;28;20205;-76
2021/05/10 07:20:45;;;;;;;3.40;2.60;;;20.10;99.90;;;;;;5076563;28;20189;-76
2021/05/10 07:23:13;;;;;;;4.27;2.40;;;20.10;99.90;;;;;;5081969;28;20423;-75
2021/05/10 07:25:41;;;;;;;2.43;2.23;;;20.10;99.90;;;;;;5062228;28;20436;-76
2021/05/10 07:28:12;;;;;;;6.50;3.43;;;20.00;99.90;;;;;;5066861;28;20467;-76
2021/05/10 07:30:39;;;;;;;3.37;2.53;;;20.10;99.90;;;;;;5066477;28;20431;-77
2021/05/10 07:33:04;;;;;;;3.00;2.80;;;20.20;99.90;;;;;;5069366;28;20467;-76
2021/05/10 07:35:31;;;;;;;3.13;2.83;;;20.20;99.90;;;;;;5079205;28;20997;-76
2021/05/10 07:37:57;;;;;;;2.90;2.70;;;20.30;99.90;;;;;;5071873;28;20234;-76
2021/05/10 07:40:24;;;;;;;3.00;2.80;;;20.30;99.90;;;;;;5082191;28;20477;-77
2021/05/10 07:42:50;;;;;;;3.70;3.13;;;20.40;99.90;;;;;;5064115;28;20182;-76
2021/05/10 07:45:16;;;;;;;3.20;3.00;;;20.30;99.90;;;;;;5063506;28;20463;-74
2021/05/10 07:47:43;;;;;;;2.70;2.50;;;20.50;99.90;;;;;;5069998;28;21562;-76
2021/05/10 07:50:09;;;;;;;3.57;2.53;;;20.50;99.90;;;;;;5073372;28;20432;-76
2021/05/10 07:52:35;;;;;;;4.13;2.60;;;20.50;99.90;;;;;;5070661;28;20478;-75
2021/05/10 07:55:02;;;;;;;3.83;2.73;;;20.60;99.90;;;;;;5068221;28;20794;-75
2021/05/10 07:57:28;;;;;;;3.53;2.43;;;20.60;99.90;;;;;;5077816;28;20201;-75
2021/05/10 07:59:53;;;;;;;2.40;2.07;;;20.50;99.90;;;;;;5061275;28;20497;-75
2021/05/10 08:02:22;;;;;;;2.93;2.30;;;20.20;99.90;;;;;;5071870;28;20182;-77
2021/05/10 08:04:51;;;;;;;2.60;2.40;;;20.20;99.90;;;;;;5079312;28;20197;-75
2021/05/10 08:07:17;;;;;;;3.60;2.77;;;20.10;99.90;;;;;;5071547;28;20586;-77
2021/05/10 08:09:43;;;;;;;3.30;2.33;;;20.10;99.90;;;;;;5069067;28;20860;-76
2021/05/10 08:12:10;;;;;;;3.47;2.30;;;20.10;99.90;;;;;;5076298;28;21020;-76
2021/05/10 08:14:35;;;;;;;4.03;2.63;;;20.10;99.90;;;;;;5068329;28;20178;-76
2021/05/10 08:17:02;;;;;;;4.93;2.83;;;20.10;99.90;;;;;;5064241;28;20427;-74
2021/05/10 08:19:28;;;;;;;2.80;2.17;;;20.20;99.90;;;;;;5070941;28;20674;-77
2021/05/10 08:21:57;;;;;;;3.57;2.67;;;20.20;99.90;;;;;;5074112;28;20428;-75
2021/05/10 08:24:23;;;;;;;3.50;2.50;;;20.20;99.90;;;;;;5071821;28;20198;-76
2021/05/10 08:26:48;;;;;;;3.07;1.90;;;20.20;99.90;;;;;;5067096;28;20472;-77
2021/05/10 08:29:14;;;;;;;3.93;2.07;;;20.20;99.90;;;;;;5071392;28;20205;-77
2021/05/10 08:31:40;;;;;;;3.63;2.20;;;20.10;99.90;;;;;;5077448;28;20200;-76
2021/05/10 08:34:06;;;;;;;3.17;2.43;;;20.20;99.90;;;;;;5069853;28;20257;-76
2021/05/10 08:36:31;;;;;;;3.87;1.90;;;20.20;99.90;;;;;;5062105;28;20197;-77
2021/05/10 08:38:57;;;;;;;3.53;2.17;;;20.30;99.90;;;;;;5070301;28;20514;-77
2021/05/10 08:41:22;;;;;;;2.03;1.70;;;20.40;99.90;;;;;;5066325;28;20240;-77
2021/05/10 08:43:48;;;;;;;2.00;1.70;;;20.40;99.90;;;;;;5064569;28;20189;-77
2021/05/10 08:46:14;;;;;;;4.47;1.80;;;20.50;99.90;;;;;;5059915;28;20572;-76
2021/05/10 08:48:39;;;;;;;3.20;1.70;;;20.50;99.90;;;;;;5065314;28;20224;-76
2021/05/10 08:51:05;;;;;;;2.73;1.40;;;20.70;99.90;;;;;;5067930;28;20707;-76
2021/05/10 08:53:35;;;;;;;2.40;1.53;;;20.90;99.60;;;;;;5062337;28;20598;-76
2021/05/10 08:56:02;;;;;;;1.40;1.30;;;21.00;98.70;;;;;;5071200;28;20188;-76
2021/05/10 08:58:28;;;;;;;1.50;1.00;;;20.80;98.30;;;;;;5078353;28;20495;-77
2021/05/10 09:00:54;;;;;;;1.73;1.50;;;20.70;98.30;;;;;;5070583;28;20462;-76
2021/05/10 09:03:20;;;;;;;1.63;1.47;;;20.80;98.80;;;;;;5079828;28;20427;-77
2021/05/10 09:05:51;;;;;;;1.60;1.50;;;20.90;97.40;;;;;;5073076;28;20428;-77
2021/05/10 09:08:17;;;;;;;3.13;2.00;;;20.80;97.40;;;;;;5071484;28;20212;-75
2021/05/10 09:11:20;;;;;;;5.57;1.60;;;20.80;96.50;;;;;;5069645;28;20470;-77
2021/05/10 09:13:53;;;;;;;2.00;1.27;;;20.60;96.70;;;;;;5073032;28;20423;-77
2021/05/10 09:16:19;;;;;;;1.33;1.23;;;20.50;96.90;;;;;;5064318;28;20420;-76
2021/05/10 09:18:58;;;;;;;1.70;1.20;;;20.40;97.00;;;;;;5079013;28;20805;-77
2021/05/10 09:21:28;;;;;;;1.10;1.03;;;20.60;97.20;;;;;;5065695;28;20276;-75
2021/05/10 09:23:54;;;;;;;2.23;1.37;;;20.60;96.40;;;;;;5069846;28;20518;-77
2021/05/10 09:26:35;;;;;;;0.87;0.70;;;20.70;96.70;;;;;;5066600;28;20507;-76
2021/05/10 09:29:02;;;;;;;2.67;1.40;;;20.60;96.00;;;;;;5061308;28;20803;-76
2021/05/10 09:31:28;;;;;;;1.90;1.10;;;20.50;96.60;;;;;;5076993;28;20499;-76
2021/05/10 09:33:55;;;;;;;1.70;1.20;;;20.40;96.40;;;;;;5070605;28;20428;-77
2021/05/10 09:36:33;;;;;;;3.00;1.53;;;20.20;96.30;;;;;;5075696;28;20517;-77
2021/05/10 09:39:00;;;;;;;1.50;1.30;;;20.10;96.30;;;;;;5074855;28;20442;-76
2021/05/10 09:41:25;;;;;;;1.37;1.27;;;20.00;96.50;;;;;;5078315;28;20420;-76
2021/05/10 09:43:59;;;;;;;2.13;1.50;;;19.90;96.80;;;;;;5070806;28;20443;-77
2021/05/10 09:46:44;;;;;;;1.93;1.10;;;19.90;97.00;;;;;;5059457;28;20216;-77
2021/05/10 09:49:10;;;;;;;1.50;1.17;;;19.90;96.70;;;;;;5068064;28;20500;-75
2021/05/10 09:51:37;;;;;;;1.33;1.13;;;19.90;96.60;;;;;;5072723;28;20431;-77
2021/05/10 09:54:13;;;;;;;2.00;1.27;;;19.80;96.80;;;;;;5067464;28;20519;-77
2021/05/10 09:56:40;;;;;;;2.73;1.47;;;19.80;97.10;;;;;;5071314;28;20432;-76
2021/05/10 09:59:14;;;;;;;2.47;1.40;;;19.70;97.30;;;;;;5077240;28;20459;-75
2021/05/10 10:01:47;;;;;;;1.00;0.90;;;19.80;97.30;;;;;;5068475;28;20438;-76
2021/05/10 10:04:20;;;;;;;3.43;1.20;;;19.70;98.00;;;;;;5072591;28;20477;-75
2021/05/10 10:06:46;;;;;;;1.40;1.30;;;19.80;97.90;;;;;;5073119;28;20493;-76
2021/05/10 10:09:12;;;;;;;1.50;1.40;;;19.60;98.30;;;;;;5071275;28;20502;-75
2021/05/10 10:11:38;;;;;;;1.90;1.40;;;19.50;98.70;;;;;;5073596;28;20987;-76
2021/05/10 10:14:04;;;;;;;2.13;1.23;;;19.50;98.60;;;;;;5083029;28;20216;-75
2021/05/10 10:16:33;;;;;;;2.60;0.97;;;19.50;98.30;;;;;;5061560;28;20189;-76
2021/05/10 10:19:01;;;;;;;1.17;1.07;;;19.70;98.60;;;;;;5068249;28;21023;-77
2021/05/10 10:21:27;;;;;;;1.67;1.57;;;19.80;98.00;;;;;;5060090;28;20841;-77
2021/05/10 10:24:01;;;;;;;1.23;1.13;;;19.80;97.60;;;;;;5063463;28;20443;-74
2021/05/10 10:26:28;;;;;;;1.47;1.17;;;19.60;97.80;;;;;;5065989;28;20454;-76
2021/05/10 10:28:56;;;;;;;1.57;1.10;;;19.60;98.30;;;;;;5061511;28;20487;-75
2021/05/10 10:31:35;;;;;;;1.20;1.10;;;19.50;98.40;;;;;;5073512;28;20531;-76
2021/05/10 10:34:09;;;;;;;1.10;1.00;;;19.40;99.00;;;;;;5075207;28;20427;-76
2021/05/10 10:36:47;;;;;;;1.20;1.10;;;19.40;99.10;;;;;;5074600;28;20450;-76
2021/05/10 10:39:23;;;;;;;1.30;1.23;;;19.50;98.50;;;;;;5063352;28;20510;-76
2021/05/10 10:42:04;;;;;;;1.20;0.93;;;19.50;98.40;;;;;;5073418;28;20416;-75
2021/05/10 10:44:47;;;;;;;1.30;1.10;;;19.50;98.10;;;;;;5064875;28;20447;-76
2021/05/10 10:47:16;;;;;;;3.53;1.20;;;19.80;98.60;;;;;;5058918;28;20474;-74
2021/05/10 10:49:43;;;;;;;1.53;1.20;;;19.90;98.20;;;;;;5082233;28;20857;-76
2021/05/10 10:52:16;;;;;;;1.23;1.17;;;19.90;99.40;;;;;;5076085;28;20427;-75
2021/05/10 10:54:42;;;;;;;1.30;1.10;;;20.00;98.70;;;;;;5080675;28;20469;-77
2021/05/10 10:57:08;;;;;;;1.73;1.20;;;20.10;99.30;;;;;;5080755;28;20427;-76
2021/05/10 10:59:37;;;;;;;2.23;1.00;;;20.20;99.20;;;;;;5074774;28;20208;-77
2021/05/10 11:02:23;;;;;;;1.13;1.03;;;20.20;98.90;;;;;;5074397;28;20186;-74
2021/05/10 11:05:08;;;;;;;1.07;0.97;;;20.20;98.40;;;;;;5076771;28;20412;-75
2021/05/10 11:08:00;;;;;;;1.93;1.10;;;20.20;97.90;;;;;;5073603;28;20810;-77
2021/05/10 11:10:50;;;;;;;1.00;0.93;;;20.20;98.50;;;;;;5072281;28;20465;-76
2021/05/10 11:13:28;;;;;;;2.80;1.20;;;20.10;98.20;;;;;;5059130;28;20433;-76
2021/05/10 11:15:55;;;;;;;1.20;1.10;;;20.10;98.10;;;;;;5069861;28;20424;-75
2021/05/10 11:18:44;;;;;;;3.63;1.47;;;20.00;98.00;;;;;;5070292;28;20458;-75
2021/05/10 11:21:22;;;;;;;1.43;1.30;;;19.80;98.10;;;;;;5059696;28;20807;-75
2021/05/10 11:23:55;;;;;;;1.73;0.90;;;20.00;98.20;;;;;;5065019;28;20423;-76
2021/05/10 11:26:55;;;;;;;1.57;1.10;;;20.10;97.50;;;;;;5069378;28;20493;-75
2021/05/10 11:29:27;;;;;;;2.10;1.10;;;20.20;98.40;;;;;;5069805;28;20532;-75
2021/05/10 11:32:19;;;;;;;1.40;1.30;;;20.40;97.30;;;;;;5064227;28;20442;-75
2021/05/10 11:34:46;;;;;;;1.40;1.13;;;20.50;96.90;;;;;;5064649;28;20513;-76
2021/05/10 11:37:12;;;;;;;1.47;1.00;;;20.50;97.90;;;;;;5058123;28;20467;-75
2021/05/10 11:39:40;;;;;;;1.63;1.10;;;20.40;97.50;;;;;;5063864;28;20428;-76
2021/05/10 11:42:09;;;;;;;1.77;1.47;;;20.30;97.90;;;;;;5080124;28;20426;-76
2021/05/10 11:44:35;;;;;;;1.20;0.87;;;20.30;98.30;;;;;;5080730;28;20427;-76
2021/05/10 11:47:03;;;;;;;2.40;1.30;;;20.20;98.10;;;;;;5076040;28;20489;-76
2021/05/10 11:49:34;;;;;;;1.57;1.00;;;19.90;98.80;;;;;;5079062;28;20212;-76
2021/05/10 11:52:14;;;;;;;1.80;1.20;;;19.60;99.20;;;;;;5072295;28;20442;-76
2021/05/10 11:54:52;;;;;;;1.50;1.10;;;19.50;99.50;;;;;;5074736;28;20423;-76
2021/05/10 11:57:28;;;;;;;1.43;1.27;;;19.40;99.20;;;;;;5071162;28;20438;-76
2021/05/10 11:59:57;;;;;;;1.50;1.40;;;19.30;99.40;;;;;;5068315;28;20443;-76
2021/05/10 12:02:26;;;;;;;1.60;1.43;;;19.40;99.50;;;;;;5063545;28;20509;-76
2021/05/10 12:04:53;;;;;;;1.20;1.10;;;19.30;99.00;;;;;;5070117;28;20817;-76
2021/05/10 12:07:21;;;;;;;1.53;1.27;;;19.20;99.10;;;;;;5069724;28;20968;-74
2021/05/10 12:10:02;;;;;;;0.97;0.90;;;19.20;99.70;;;;;;5062965;28;20428;-76
2021/05/10 12:12:48;;;;;;;1.40;0.93;;;19.30;99.90;;;;;;5065317;28;20424;-75
2021/05/10 12:15:18;;;;;;;1.80;1.70;;;19.40;99.70;;;;;;5069050;28;20438;-76
2021/05/10 12:17:52;;;;;;;1.43;1.33;;;19.30;99.10;;;;;;5074291;28;20462;-76
2021/05/10 12:20:25;;;;;;;1.30;1.20;;;19.30;99.20;;;;;;5078555;28;20431;-75
2021/05/10 12:22:54;;;;;;;1.23;1.00;;;19.20;99.80;;;;;;5077200;28;20419;-75
2021/05/10 12:25:37;;;;;;;2.90;1.53;;;19.10;99.90;;;;;;5069426;28;20424;-76
2021/05/10 12:28:13;;;;;;;0.93;0.83;;;19.20;99.90;;;;;;5075063;28;21023;-76
2021/05/10 12:30:41;;;;;;;2.17;0.90;;;19.10;99.90;;;;;;5068456;28;20935;-77
2021/05/10 12:33:14;;;;;;;1.20;1.00;;;18.90;99.90;;;;;;5066242;28;20447;-75
2021/05/10 12:35:47;;;;;;;1.30;1.20;;;18.70;99.90;;;;;;5074352;28;20519;-77
2021/05/10 12:38:34;;;;;;;5.00;1.10;;;18.50;99.90;;;;;;5079269;28;20463;-76
2021/05/10 12:41:01;;;;;;;2.03;1.03;;;18.30;99.90;;;;;;5066008;28;20427;-75
2021/05/10 12:43:29;;;;;;;1.13;1.00;;;18.00;99.90;;;;;;5064199;28;20420;-76
2021/05/10 12:45:57;;;;;;;1.00;1.00;;;17.80;99.90;;;;;;5070884;28;20458;-75
2021/05/10 12:48:29;;;;;;;1.57;1.47;;;17.80;99.90;;;;;;5073334;28;20891;-75
2021/05/10 12:50:55;;;;;;;3.90;1.23;;;17.70;99.90;;;;;;5076290;28;20763;-74
2021/05/10 12:53:41;;;;;;;2.57;1.20;;;17.70;99.90;;;;;;5077117;28;20882;-78
2021/05/10 12:56:11;;;;;;;2.00;1.07;;;17.60;99.90;;;;;;5065962;28;20482;-75
2021/05/10 12:58:39;;;;;;;1.37;1.27;;;17.50;99.90;;;;;;5071248;28;20463;-77
2021/05/10 13:01:16;;;;;;;1.03;1.00;;;17.40;99.90;;;;;;5062080;28;20444;-73